sensor_id;sensor_type;location;lat;lon;timestamp;P1;durP1;ratioP1;P2;durP2;ratioP2
11797;SDS011;5956;51.428;6.682;2022-12-18T00:01:30;12.30;;;8.33;;
11797;SDS011;5956;51.428;6.682;2022-12-18T00:03:59;14.37;;;8.67;;
11797;SDS011;5956;51.428;6.682;2022-12-18T00:06:27;13.77;;;9.60;;
11797;SDS011;5956;51.428;6.682;2022-12-18T00:08:55;16.33;;;10.77;;
11797;SDS011;5956;51.428;6.682;2022-12-18T00:11:23;15.57;;;11.07;;
11797;SDS011;5956;51.428;6.682;2022-12-18T00:13:50;12.73;;;9.40;;
11797;SDS011;5956;51.428;6.682;2022-12-18T00:16:17;13.30;;;9.33;;
11797;SDS011;5956;51.428;6.682;2022-12-18T00:18:45;10.80;;;8.80;;
11797;SDS011;5956;51.428;6.682;2022-12-18T00:21:14;11.10;;;8.50;;
11797;SDS011;5956;51.428;6.682;2022-12-18T00:23:41;11.60;;;8.40;;
11797;SDS011;5956;51.428;6.682;2022-12-18T00:26:10;12.10;;;9.30;;
11797;SDS011;5956;51.428;6.682;2022-12-18T00:28:41;11.57;;;8.30;;
11797;SDS011;5956;51.428;6.682;2022-12-18T00:31:08;10.27;;;7.63;;
11797;SDS011;5956;51.428;6.682;2022-12-18T00:33:35;10.17;;;8.23;;
11797;SDS011;5956;51.428;6.682;2022-12-18T00:36:02;9.50;;;8.50;;
11797;SDS011;5956;51.428;6.682;2022-12-18T00:38:31;10.73;;;8.40;;
11797;SDS011;5956;51.428;6.682;2022-12-18T00:40:57;12.47;;;9.27;;
11797;SDS011;5956;51.428;6.682;2022-12-18T00:43:24;18.03;;;9.80;;
11797;SDS011;5956;51.428;6.682;2022-12-18T00:45:50;14.23;;;9.53;;
11797;SDS011;5956;51.428;6.682;2022-12-18T00:48:16;16.87;;;10.83;;
11797;SDS011;5956;51.428;6.682;2022-12-18T00:50:43;17.30;;;10.93;;
11797;SDS011;5956;51.428;6.682;2022-12-18T00:53:09;16.37;;;11.17;;
11797;SDS011;5956;51.428;6.682;2022-12-18T00:55:38;12.83;;;9.53;;
11797;SDS011;5956;51.428;6.682;2022-12-18T00:58:05;16.87;;;10.27;;
11797;SDS011;5956;51.428;6.682;2022-12-18T01:00:31;12.77;;;10.07;;
11797;SDS011;5956;51.428;6.682;2022-12-18T01:02:58;14.17;;;9.17;;
11797;SDS011;5956;51.428;6.682;2022-12-18T01:05:24;11.40;;;8.63;;
11797;SDS011;5956;51.428;6.682;2022-12-18T01:07:51;11.60;;;8.43;;
11797;SDS011;5956;51.428;6.682;2022-12-18T01:10:18;12.17;;;8.87;;
11797;SDS011;5956;51.428;6.682;2022-12-18T01:12:46;10.70;;;8.53;;
11797;SDS011;5956;51.428;6.682;2022-12-18T01:15:13;11.97;;;8.53;;
11797;SDS011;5956;51.428;6.682;2022-12-18T01:17:39;16.57;;;9.63;;
11797;SDS011;5956;51.428;6.682;2022-12-18T01:20:07;12.60;;;8.90;;
11797;SDS011;5956;51.428;6.682;2022-12-18T01:22:34;11.90;;;9.20;;
11797;SDS011;5956;51.428;6.682;2022-12-18T01:25:00;11.83;;;9.17;;
11797;SDS011;5956;51.428;6.682;2022-12-18T01:27:27;10.87;;;7.73;;
11797;SDS011;5956;51.428;6.682;2022-12-18T01:29:55;15.20;;;8.73;;
11797;SDS011;5956;51.428;6.682;2022-12-18T01:32:21;10.47;;;8.13;;
11797;SDS011;5956;51.428;6.682;2022-12-18T01:34:48;9.80;;;8.07;;
11797;SDS011;5956;51.428;6.682;2022-12-18T01:37:14;10.97;;;8.07;;
11797;SDS011;5956;51.428;6.682;2022-12-18T01:39:41;8.83;;;7.57;;
11797;SDS011;5956;51.428;6.682;2022-12-18T01:42:09;12.23;;;7.87;;
11797;SDS011;5956;51.428;6.682;2022-12-18T01:52:12;10.33;;;8.00;;
11797;SDS011;5956;51.428;6.682;2022-12-18T01:54:39;10.97;;;7.90;;
11797;SDS011;5956;51.428;6.682;2022-12-18T01:57:06;9.77;;;7.77;;
11797;SDS011;5956;51.428;6.682;2022-12-18T01:59:32;9.10;;;7.67;;
11797;SDS011;5956;51.428;6.682;2022-12-18T02:02:00;11.30;;;7.63;;
11797;SDS011;5956;51.428;6.682;2022-12-18T02:04:27;15.37;;;8.23;;
11797;SDS011;5956;51.428;6.682;2022-12-18T02:06:54;10.27;;;7.93;;
11797;SDS011;5956;51.428;6.682;2022-12-18T02:09:26;10.33;;;7.10;;
11797;SDS011;5956;51.428;6.682;2022-12-18T02:11:56;11.07;;;7.80;;
11797;SDS011;5956;51.428;6.682;2022-12-18T02:14:28;11.17;;;8.10;;
11797;SDS011;5956;51.428;6.682;2022-12-18T02:17:02;11.67;;;7.70;;
11797;SDS011;5956;51.428;6.682;2022-12-18T02:19:37;9.93;;;7.67;;
11797;SDS011;5956;51.428;6.682;2022-12-18T02:22:09;19.50;;;8.40;;
11797;SDS011;5956;51.428;6.682;2022-12-18T02:24:40;9.97;;;7.77;;
11797;SDS011;5956;51.428;6.682;2022-12-18T02:27:11;10.70;;;8.43;;
11797;SDS011;5956;51.428;6.682;2022-12-18T02:29:39;10.60;;;7.90;;
11797;SDS011;5956;51.428;6.682;2022-12-18T02:32:08;11.50;;;7.80;;
11797;SDS011;5956;51.428;6.682;2022-12-18T02:34:37;11.33;;;8.17;;
11797;SDS011;5956;51.428;6.682;2022-12-18T02:37:04;10.90;;;8.27;;
11797;SDS011;5956;51.428;6.682;2022-12-18T02:39:32;12.30;;;8.97;;
11797;SDS011;5956;51.428;6.682;2022-12-18T02:41:59;10.27;;;8.60;;
11797;SDS011;5956;51.428;6.682;2022-12-18T02:44:34;11.30;;;8.17;;
11797;SDS011;5956;51.428;6.682;2022-12-18T02:47:01;11.40;;;8.70;;
11797;SDS011;5956;51.428;6.682;2022-12-18T02:49:31;12.10;;;8.73;;
11797;SDS011;5956;51.428;6.682;2022-12-18T02:52:02;10.30;;;7.80;;
11797;SDS011;5956;51.428;6.682;2022-12-18T02:54:35;15.10;;;8.07;;
11797;SDS011;5956;51.428;6.682;2022-12-18T02:57:05;11.13;;;7.97;;
11797;SDS011;5956;51.428;6.682;2022-12-18T02:59:39;12.00;;;8.70;;
11797;SDS011;5956;51.428;6.682;2022-12-18T03:02:08;12.23;;;8.43;;
11797;SDS011;5956;51.428;6.682;2022-12-18T03:04:42;11.17;;;7.20;;
11797;SDS011;5956;51.428;6.682;2022-12-18T03:07:11;10.47;;;8.13;;
11797;SDS011;5956;51.428;6.682;2022-12-18T03:09:42;9.10;;;7.13;;
11797;SDS011;5956;51.428;6.682;2022-12-18T03:12:14;8.93;;;7.73;;
11797;SDS011;5956;51.428;6.682;2022-12-18T03:14:51;11.57;;;9.03;;
11797;SDS011;5956;51.428;6.682;2022-12-18T03:17:19;12.30;;;8.40;;
11797;SDS011;5956;51.428;6.682;2022-12-18T03:19:47;8.83;;;7.93;;
11797;SDS011;5956;51.428;6.682;2022-12-18T03:22:16;13.63;;;8.70;;
11797;SDS011;5956;51.428;6.682;2022-12-18T03:24:42;12.40;;;7.70;;
11797;SDS011;5956;51.428;6.682;2022-12-18T03:27:11;11.43;;;7.87;;
11797;SDS011;5956;51.428;6.682;2022-12-18T03:29:40;11.67;;;8.07;;
11797;SDS011;5956;51.428;6.682;2022-12-18T03:32:11;8.47;;;7.57;;
11797;SDS011;5956;51.428;6.682;2022-12-18T03:34:39;10.87;;;7.83;;
11797;SDS011;5956;51.428;6.682;2022-12-18T03:37:06;12.27;;;8.60;;
11797;SDS011;5956;51.428;6.682;2022-12-18T03:39:33;9.27;;;7.63;;
11797;SDS011;5956;51.428;6.682;2022-12-18T03:42:01;9.73;;;8.27;;
11797;SDS011;5956;51.428;6.682;2022-12-18T03:44:32;8.70;;;7.40;;
11797;SDS011;5956;51.428;6.682;2022-12-18T03:47:04;9.67;;;8.20;;
11797;SDS011;5956;51.428;6.682;2022-12-18T03:49:34;10.47;;;8.10;;
11797;SDS011;5956;51.428;6.682;2022-12-18T03:52:03;9.67;;;8.20;;
11797;SDS011;5956;51.428;6.682;2022-12-18T03:54:30;12.37;;;8.50;;
11797;SDS011;5956;51.428;6.682;2022-12-18T03:56:59;9.30;;;7.40;;
11797;SDS011;5956;51.428;6.682;2022-12-18T03:59:27;9.50;;;7.33;;
11797;SDS011;5956;51.428;6.682;2022-12-18T04:01:55;9.93;;;7.90;;
11797;SDS011;5956;51.428;6.682;2022-12-18T04:04:23;8.87;;;7.63;;
11797;SDS011;5956;51.428;6.682;2022-12-18T04:06:52;8.80;;;7.40;;
11797;SDS011;5956;51.428;6.682;2022-12-18T04:09:19;8.37;;;7.13;;
11797;SDS011;5956;51.428;6.682;2022-12-18T04:11:46;9.80;;;7.40;;
11797;SDS011;5956;51.428;6.682;2022-12-18T04:14:13;11.27;;;7.50;;
11797;SDS011;5956;51.428;6.682;2022-12-18T04:16:40;10.23;;;7.50;;
11797;SDS011;5956;51.428;6.682;2022-12-18T04:19:06;7.67;;;6.80;;
11797;SDS011;5956;51.428;6.682;2022-12-18T04:21:33;11.60;;;7.70;;
11797;SDS011;5956;51.428;6.682;2022-12-18T04:24:01;9.07;;;7.73;;
11797;SDS011;5956;51.428;6.682;2022-12-18T04:26:27;8.33;;;7.43;;
11797;SDS011;5956;51.428;6.682;2022-12-18T04:28:54;9.00;;;7.73;;
11797;SDS011;5956;51.428;6.682;2022-12-18T04:31:20;10.63;;;8.50;;
11797;SDS011;5956;51.428;6.682;2022-12-18T04:33:48;8.63;;;7.70;;
11797;SDS011;5956;51.428;6.682;2022-12-18T04:36:14;8.50;;;7.13;;
11797;SDS011;5956;51.428;6.682;2022-12-18T04:38:41;8.17;;;7.33;;
11797;SDS011;5956;51.428;6.682;2022-12-18T04:41:09;8.53;;;7.37;;
11797;SDS011;5956;51.428;6.682;2022-12-18T04:43:37;8.23;;;7.33;;
11797;SDS011;5956;51.428;6.682;2022-12-18T04:46:04;9.93;;;7.27;;
11797;SDS011;5956;51.428;6.682;2022-12-18T04:48:31;9.27;;;7.40;;
11797;SDS011;5956;51.428;6.682;2022-12-18T04:50:58;8.10;;;6.97;;
11797;SDS011;5956;51.428;6.682;2022-12-18T04:53:25;8.13;;;6.47;;
11797;SDS011;5956;51.428;6.682;2022-12-18T04:56:01;7.17;;;6.27;;
11797;SDS011;5956;51.428;6.682;2022-12-18T04:58:29;8.77;;;6.97;;
11797;SDS011;5956;51.428;6.682;2022-12-18T05:00:56;7.77;;;6.40;;
11797;SDS011;5956;51.428;6.682;2022-12-18T05:03:22;7.50;;;6.57;;
11797;SDS011;5956;51.428;6.682;2022-12-18T05:05:49;8.00;;;7.03;;
11797;SDS011;5956;51.428;6.682;2022-12-18T05:08:16;8.43;;;7.00;;
11797;SDS011;5956;51.428;6.682;2022-12-18T05:10:42;7.57;;;6.77;;
11797;SDS011;5956;51.428;6.682;2022-12-18T05:13:09;7.33;;;6.20;;
11797;SDS011;5956;51.428;6.682;2022-12-18T05:15:37;7.13;;;6.40;;
11797;SDS011;5956;51.428;6.682;2022-12-18T05:18:03;6.87;;;6.13;;
11797;SDS011;5956;51.428;6.682;2022-12-18T05:20:30;8.90;;;6.87;;
11797;SDS011;5956;51.428;6.682;2022-12-18T05:22:57;7.37;;;6.60;;
11797;SDS011;5956;51.428;6.682;2022-12-18T05:25:23;7.13;;;6.43;;
11797;SDS011;5956;51.428;6.682;2022-12-18T05:27:50;9.47;;;7.03;;
11797;SDS011;5956;51.428;6.682;2022-12-18T05:30:17;7.20;;;5.87;;
11797;SDS011;5956;51.428;6.682;2022-12-18T05:32:45;8.53;;;6.37;;
11797;SDS011;5956;51.428;6.682;2022-12-18T05:35:11;7.00;;;5.90;;
11797;SDS011;5956;51.428;6.682;2022-12-18T05:37:38;8.43;;;6.73;;
11797;SDS011;5956;51.428;6.682;2022-12-18T05:40:04;6.80;;;5.63;;
11797;SDS011;5956;51.428;6.682;2022-12-18T05:42:31;6.53;;;5.53;;
11797;SDS011;5956;51.428;6.682;2022-12-18T05:44:57;7.03;;;6.07;;
11797;SDS011;5956;51.428;6.682;2022-12-18T05:47:24;6.97;;;6.00;;
11797;SDS011;5956;51.428;6.682;2022-12-18T05:49:52;6.43;;;5.80;;
11797;SDS011;5956;51.428;6.682;2022-12-18T05:52:19;6.83;;;6.13;;
11797;SDS011;5956;51.428;6.682;2022-12-18T05:54:46;7.63;;;6.43;;
11797;SDS011;5956;51.428;6.682;2022-12-18T05:57:12;6.00;;;5.40;;
11797;SDS011;5956;51.428;6.682;2022-12-18T05:59:38;6.57;;;5.37;;
11797;SDS011;5956;51.428;6.682;2022-12-18T06:02:05;8.17;;;6.37;;
11797;SDS011;5956;51.428;6.682;2022-12-18T06:04:31;9.60;;;6.43;;
11797;SDS011;5956;51.428;6.682;2022-12-18T06:06:59;6.70;;;5.47;;
11797;SDS011;5956;51.428;6.682;2022-12-18T06:09:29;7.27;;;5.83;;
11797;SDS011;5956;51.428;6.682;2022-12-18T06:11:55;7.40;;;6.23;;
11797;SDS011;5956;51.428;6.682;2022-12-18T06:14:22;9.23;;;6.73;;
11797;SDS011;5956;51.428;6.682;2022-12-18T06:16:50;7.50;;;6.40;;
11797;SDS011;5956;51.428;6.682;2022-12-18T06:19:16;12.03;;;6.80;;
11797;SDS011;5956;51.428;6.682;2022-12-18T06:21:43;11.03;;;7.80;;
11797;SDS011;5956;51.428;6.682;2022-12-18T06:24:11;9.77;;;6.93;;
11797;SDS011;5956;51.428;6.682;2022-12-18T06:26:37;9.20;;;7.20;;
11797;SDS011;5956;51.428;6.682;2022-12-18T06:29:05;9.37;;;8.03;;
11797;SDS011;5956;51.428;6.682;2022-12-18T06:31:32;12.10;;;7.87;;
11797;SDS011;5956;51.428;6.682;2022-12-18T06:33:59;11.33;;;7.70;;
11797;SDS011;5956;51.428;6.682;2022-12-18T06:36:27;12.43;;;8.03;;
11797;SDS011;5956;51.428;6.682;2022-12-18T06:38:55;11.00;;;7.73;;
11797;SDS011;5956;51.428;6.682;2022-12-18T06:41:24;10.43;;;7.50;;
11797;SDS011;5956;51.428;6.682;2022-12-18T06:43:50;10.90;;;7.00;;
11797;SDS011;5956;51.428;6.682;2022-12-18T06:46:17;11.33;;;6.77;;
11797;SDS011;5956;51.428;6.682;2022-12-18T06:48:46;8.10;;;6.90;;
11797;SDS011;5956;51.428;6.682;2022-12-18T06:51:15;8.07;;;6.37;;
11797;SDS011;5956;51.428;6.682;2022-12-18T06:53:41;7.43;;;5.90;;
11797;SDS011;5956;51.428;6.682;2022-12-18T06:56:08;9.30;;;6.83;;
11797;SDS011;5956;51.428;6.682;2022-12-18T06:58:36;8.93;;;6.00;;
11797;SDS011;5956;51.428;6.682;2022-12-18T07:01:03;7.23;;;6.10;;
11797;SDS011;5956;51.428;6.682;2022-12-18T07:03:30;9.23;;;6.67;;
11797;SDS011;5956;51.428;6.682;2022-12-18T07:05:57;9.00;;;6.47;;
11797;SDS011;5956;51.428;6.682;2022-12-18T07:08:23;7.87;;;5.90;;
11797;SDS011;5956;51.428;6.682;2022-12-18T07:10:50;8.50;;;6.70;;
11797;SDS011;5956;51.428;6.682;2022-12-18T07:13:18;8.13;;;6.13;;
11797;SDS011;5956;51.428;6.682;2022-12-18T07:15:46;7.83;;;6.30;;
11797;SDS011;5956;51.428;6.682;2022-12-18T07:18:12;6.73;;;5.70;;
11797;SDS011;5956;51.428;6.682;2022-12-18T07:20:39;6.40;;;5.77;;
11797;SDS011;5956;51.428;6.682;2022-12-18T07:23:05;8.43;;;5.93;;
11797;SDS011;5956;51.428;6.682;2022-12-18T07:25:33;10.03;;;6.67;;
11797;SDS011;5956;51.428;6.682;2022-12-18T07:27:59;9.33;;;6.80;;
11797;SDS011;5956;51.428;6.682;2022-12-18T07:30:26;8.10;;;6.37;;
11797;SDS011;5956;51.428;6.682;2022-12-18T07:32:54;8.17;;;6.40;;
11797;SDS011;5956;51.428;6.682;2022-12-18T07:35:20;10.40;;;6.50;;
11797;SDS011;5956;51.428;6.682;2022-12-18T07:37:47;8.47;;;6.20;;
11797;SDS011;5956;51.428;6.682;2022-12-18T07:40:13;8.70;;;6.20;;
11797;SDS011;5956;51.428;6.682;2022-12-18T07:42:40;7.77;;;6.10;;
11797;SDS011;5956;51.428;6.682;2022-12-18T07:45:07;9.00;;;7.33;;
11797;SDS011;5956;51.428;6.682;2022-12-18T07:47:34;9.63;;;6.80;;
11797;SDS011;5956;51.428;6.682;2022-12-18T07:50:03;9.73;;;7.30;;
11797;SDS011;5956;51.428;6.682;2022-12-18T07:52:30;8.80;;;7.40;;
11797;SDS011;5956;51.428;6.682;2022-12-18T07:54:56;11.97;;;8.20;;
11797;SDS011;5956;51.428;6.682;2022-12-18T07:57:23;10.60;;;8.77;;
11797;SDS011;5956;51.428;6.682;2022-12-18T07:59:49;12.70;;;8.90;;
11797;SDS011;5956;51.428;6.682;2022-12-18T08:02:16;12.00;;;8.23;;
11797;SDS011;5956;51.428;6.682;2022-12-18T08:04:43;9.00;;;7.40;;
11797;SDS011;5956;51.428;6.682;2022-12-18T08:07:11;8.37;;;7.07;;
11797;SDS011;5956;51.428;6.682;2022-12-18T08:09:37;7.97;;;7.07;;
11797;SDS011;5956;51.428;6.682;2022-12-18T08:12:04;9.17;;;7.10;;
11797;SDS011;5956;51.428;6.682;2022-12-18T08:14:31;10.27;;;7.43;;
11797;SDS011;5956;51.428;6.682;2022-12-18T08:16:57;9.13;;;5.73;;
11797;SDS011;5956;51.428;6.682;2022-12-18T08:19:24;12.10;;;7.60;;
11797;SDS011;5956;51.428;6.682;2022-12-18T08:21:50;7.60;;;6.20;;
11797;SDS011;5956;51.428;6.682;2022-12-18T08:24:18;8.67;;;6.77;;
11797;SDS011;5956;51.428;6.682;2022-12-18T08:26:45;9.00;;;6.90;;
11797;SDS011;5956;51.428;6.682;2022-12-18T08:29:11;9.67;;;6.90;;
11797;SDS011;5956;51.428;6.682;2022-12-18T08:31:38;10.20;;;7.23;;
11797;SDS011;5956;51.428;6.682;2022-12-18T08:34:05;9.07;;;6.73;;
11797;SDS011;5956;51.428;6.682;2022-12-18T08:36:31;10.77;;;8.03;;
11797;SDS011;5956;51.428;6.682;2022-12-18T08:38:58;8.17;;;6.87;;
11797;SDS011;5956;51.428;6.682;2022-12-18T08:41:26;9.77;;;6.57;;
11797;SDS011;5956;51.428;6.682;2022-12-18T08:43:52;7.53;;;6.77;;
11797;SDS011;5956;51.428;6.682;2022-12-18T08:46:34;8.43;;;7.03;;
11797;SDS011;5956;51.428;6.682;2022-12-18T08:49:00;10.07;;;6.70;;
11797;SDS011;5956;51.428;6.682;2022-12-18T08:51:25;8.30;;;7.33;;
11797;SDS011;5956;51.428;6.682;2022-12-18T08:53:52;8.70;;;7.07;;
11797;SDS011;5956;51.428;6.682;2022-12-18T08:56:18;10.50;;;7.97;;
11797;SDS011;5956;51.428;6.682;2022-12-18T08:58:46;8.97;;;6.97;;
11797;SDS011;5956;51.428;6.682;2022-12-18T09:01:13;9.00;;;7.03;;
11797;SDS011;5956;51.428;6.682;2022-12-18T09:03:40;8.30;;;6.47;;
11797;SDS011;5956;51.428;6.682;2022-12-18T09:06:07;9.70;;;6.83;;
11797;SDS011;5956;51.428;6.682;2022-12-18T09:08:34;7.57;;;6.50;;
11797;SDS011;5956;51.428;6.682;2022-12-18T09:11:01;8.63;;;7.37;;
11797;SDS011;5956;51.428;6.682;2022-12-18T09:13:28;10.87;;;7.50;;
11797;SDS011;5956;51.428;6.682;2022-12-18T09:15:56;9.33;;;7.50;;
11797;SDS011;5956;51.428;6.682;2022-12-18T09:18:23;9.83;;;7.27;;
11797;SDS011;5956;51.428;6.682;2022-12-18T09:20:50;17.33;;;11.63;;
11797;SDS011;5956;51.428;6.682;2022-12-18T09:23:18;10.07;;;7.93;;
11797;SDS011;5956;51.428;6.682;2022-12-18T09:25:45;9.50;;;7.60;;
11797;SDS011;5956;51.428;6.682;2022-12-18T09:28:12;8.93;;;7.80;;
11797;SDS011;5956;51.428;6.682;2022-12-18T09:30:41;9.23;;;7.53;;
11797;SDS011;5956;51.428;6.682;2022-12-18T09:33:10;12.57;;;7.93;;
11797;SDS011;5956;51.428;6.682;2022-12-18T09:35:36;10.13;;;8.03;;
11797;SDS011;5956;51.428;6.682;2022-12-18T09:38:06;11.03;;;7.97;;
11797;SDS011;5956;51.428;6.682;2022-12-18T09:40:35;11.13;;;8.53;;
11797;SDS011;5956;51.428;6.682;2022-12-18T09:43:03;12.97;;;8.17;;
11797;SDS011;5956;51.428;6.682;2022-12-18T09:45:30;9.30;;;7.17;;
11797;SDS011;5956;51.428;6.682;2022-12-18T09:48:01;9.93;;;7.63;;
11797;SDS011;5956;51.428;6.682;2022-12-18T09:50:32;14.00;;;10.63;;
11797;SDS011;5956;51.428;6.682;2022-12-18T09:53:02;12.63;;;8.87;;
11797;SDS011;5956;51.428;6.682;2022-12-18T09:55:31;11.33;;;7.23;;
11797;SDS011;5956;51.428;6.682;2022-12-18T09:58:00;11.40;;;7.53;;
11797;SDS011;5956;51.428;6.682;2022-12-18T10:00:28;9.00;;;7.27;;
11797;SDS011;5956;51.428;6.682;2022-12-18T10:02:58;7.93;;;7.13;;
11797;SDS011;5956;51.428;6.682;2022-12-18T10:05:27;9.73;;;7.13;;
11797;SDS011;5956;51.428;6.682;2022-12-18T10:08:02;8.60;;;7.60;;
11797;SDS011;5956;51.428;6.682;2022-12-18T10:10:32;13.17;;;7.47;;
11797;SDS011;5956;51.428;6.682;2022-12-18T10:13:06;9.20;;;7.03;;
11797;SDS011;5956;51.428;6.682;2022-12-18T10:15:36;8.70;;;7.43;;
11797;SDS011;5956;51.428;6.682;2022-12-18T10:18:07;9.13;;;7.70;;
11797;SDS011;5956;51.428;6.682;2022-12-18T10:20:39;9.77;;;8.00;;
11797;SDS011;5956;51.428;6.682;2022-12-18T10:23:11;10.50;;;8.40;;
11797;SDS011;5956;51.428;6.682;2022-12-18T10:25:50;8.93;;;7.80;;
11797;SDS011;5956;51.428;6.682;2022-12-18T10:28:18;12.23;;;8.50;;
11797;SDS011;5956;51.428;6.682;2022-12-18T10:30:45;9.67;;;7.50;;
11797;SDS011;5956;51.428;6.682;2022-12-18T10:33:12;11.02;;;9.35;;
11797;SDS011;5956;51.428;6.682;2022-12-18T10:35:41;9.97;;;8.10;;
11797;SDS011;5956;51.428;6.682;2022-12-18T10:38:21;10.00;;;8.03;;
11797;SDS011;5956;51.428;6.682;2022-12-18T10:40:49;11.30;;;8.50;;
11797;SDS011;5956;51.428;6.682;2022-12-18T10:43:19;11.13;;;8.33;;
11797;SDS011;5956;51.428;6.682;2022-12-18T10:45:57;9.70;;;7.83;;
11797;SDS011;5956;51.428;6.682;2022-12-18T10:48:24;8.77;;;7.27;;
11797;SDS011;5956;51.428;6.682;2022-12-18T10:50:51;11.67;;;7.73;;
11797;SDS011;5956;51.428;6.682;2022-12-18T10:53:19;12.80;;;8.23;;
11797;SDS011;5956;51.428;6.682;2022-12-18T10:55:47;9.17;;;7.67;;
11797;SDS011;5956;51.428;6.682;2022-12-18T10:58:20;9.37;;;7.77;;
11797;SDS011;5956;51.428;6.682;2022-12-18T11:01:01;10.87;;;8.30;;
11797;SDS011;5956;51.428;6.682;2022-12-18T11:03:29;8.53;;;7.23;;
11797;SDS011;5956;51.428;6.682;2022-12-18T11:06:01;11.83;;;7.93;;
11797;SDS011;5956;51.428;6.682;2022-12-18T11:08:28;8.47;;;6.93;;
11797;SDS011;5956;51.428;6.682;2022-12-18T11:10:56;9.27;;;8.10;;
11797;SDS011;5956;51.428;6.682;2022-12-18T11:13:23;8.97;;;7.77;;
11797;SDS011;5956;51.428;6.682;2022-12-18T11:15:51;12.33;;;9.33;;
11797;SDS011;5956;51.428;6.682;2022-12-18T11:18:18;11.17;;;8.23;;
11797;SDS011;5956;51.428;6.682;2022-12-18T11:20:50;10.60;;;8.10;;
11797;SDS011;5956;51.428;6.682;2022-12-18T11:23:17;10.00;;;8.27;;
11797;SDS011;5956;51.428;6.682;2022-12-18T11:25:50;13.23;;;8.30;;
11797;SDS011;5956;51.428;6.682;2022-12-18T11:28:26;10.83;;;8.80;;
11797;SDS011;5956;51.428;6.682;2022-12-18T11:31:08;10.00;;;8.30;;
11797;SDS011;5956;51.428;6.682;2022-12-18T11:33:36;10.30;;;7.77;;
11797;SDS011;5956;51.428;6.682;2022-12-18T11:36:04;9.03;;;7.20;;
11797;SDS011;5956;51.428;6.682;2022-12-18T11:38:33;10.03;;;7.83;;
11797;SDS011;5956;51.428;6.682;2022-12-18T11:41:03;8.67;;;7.77;;
11797;SDS011;5956;51.428;6.682;2022-12-18T11:43:33;10.97;;;8.73;;
11797;SDS011;5956;51.428;6.682;2022-12-18T11:46:03;12.10;;;7.77;;
11797;SDS011;5956;51.428;6.682;2022-12-18T11:48:32;11.10;;;8.47;;
11797;SDS011;5956;51.428;6.682;2022-12-18T11:51:01;11.33;;;8.60;;
11797;SDS011;5956;51.428;6.682;2022-12-18T11:53:29;11.17;;;8.57;;
11797;SDS011;5956;51.428;6.682;2022-12-18T11:56:00;9.67;;;8.00;;
11797;SDS011;5956;51.428;6.682;2022-12-18T11:58:34;11.73;;;8.53;;
11797;SDS011;5956;51.428;6.682;2022-12-18T12:01:03;10.00;;;8.40;;
11797;SDS011;5956;51.428;6.682;2022-12-18T12:03:39;11.40;;;8.27;;
11797;SDS011;5956;51.428;6.682;2022-12-18T12:06:13;9.33;;;8.30;;
11797;SDS011;5956;51.428;6.682;2022-12-18T12:08:48;10.10;;;8.97;;
11797;SDS011;5956;51.428;6.682;2022-12-18T12:11:19;10.33;;;8.77;;
11797;SDS011;5956;51.428;6.682;2022-12-18T12:14:00;9.90;;;8.40;;
11797;SDS011;5956;51.428;6.682;2022-12-18T12:16:32;10.97;;;8.17;;
11797;SDS011;5956;51.428;6.682;2022-12-18T12:19:06;11.00;;;8.20;;
11797;SDS011;5956;51.428;6.682;2022-12-18T12:21:35;12.30;;;8.07;;
11797;SDS011;5956;51.428;6.682;2022-12-18T12:24:10;9.90;;;7.97;;
11797;SDS011;5956;51.428;6.682;2022-12-18T12:26:38;12.60;;;9.30;;
11797;SDS011;5956;51.428;6.682;2022-12-18T12:29:16;11.60;;;9.07;;
11797;SDS011;5956;51.428;6.682;2022-12-18T12:31:49;11.47;;;9.13;;
11797;SDS011;5956;51.428;6.682;2022-12-18T12:34:19;12.70;;;8.67;;
11797;SDS011;5956;51.428;6.682;2022-12-18T12:36:51;9.27;;;7.90;;
11797;SDS011;5956;51.428;6.682;2022-12-18T12:39:20;10.27;;;8.73;;
11797;SDS011;5956;51.428;6.682;2022-12-18T12:41:48;13.07;;;9.33;;
11797;SDS011;5956;51.428;6.682;2022-12-18T12:44:32;12.87;;;9.97;;
11797;SDS011;5956;51.428;6.682;2022-12-18T12:46:59;13.27;;;9.40;;
11797;SDS011;5956;51.428;6.682;2022-12-18T12:49:25;11.63;;;9.43;;
11797;SDS011;5956;51.428;6.682;2022-12-18T12:51:53;11.23;;;8.90;;
11797;SDS011;5956;51.428;6.682;2022-12-18T12:54:26;13.97;;;9.67;;
11797;SDS011;5956;51.428;6.682;2022-12-18T12:56:54;17.20;;;10.43;;
11797;SDS011;5956;51.428;6.682;2022-12-18T12:59:25;14.60;;;9.47;;
11797;SDS011;5956;51.428;6.682;2022-12-18T13:01:59;15.93;;;9.80;;
11797;SDS011;5956;51.428;6.682;2022-12-18T13:04:31;13.67;;;10.07;;
11797;SDS011;5956;51.428;6.682;2022-12-18T13:07:01;12.63;;;9.90;;
11797;SDS011;5956;51.428;6.682;2022-12-18T13:09:30;13.13;;;10.20;;
11797;SDS011;5956;51.428;6.682;2022-12-18T13:12:01;16.17;;;10.80;;
11797;SDS011;5956;51.428;6.682;2022-12-18T13:14:41;31.50;;;17.10;;
11797;SDS011;5956;51.428;6.682;2022-12-18T13:19:49;11.17;;;9.63;;
11797;SDS011;5956;51.428;6.682;2022-12-18T13:22:34;12.03;;;10.37;;
11797;SDS011;5956;51.428;6.682;2022-12-18T13:25:01;14.70;;;10.73;;
11797;SDS011;5956;51.428;6.682;2022-12-18T13:37:41;15.70;;;11.23;;
11797;SDS011;5956;51.428;6.682;2022-12-18T13:42:50;18.07;;;11.67;;
11797;SDS011;5956;51.428;6.682;2022-12-18T13:45:39;16.07;;;12.63;;
11797;SDS011;5956;51.428;6.682;2022-12-18T13:48:10;15.10;;;11.47;;
11797;SDS011;5956;51.428;6.682;2022-12-18T13:50:39;14.03;;;11.90;;
11797;SDS011;5956;51.428;6.682;2022-12-18T13:53:11;16.00;;;11.57;;
11797;SDS011;5956;51.428;6.682;2022-12-18T13:55:43;17.03;;;11.23;;
11797;SDS011;5956;51.428;6.682;2022-12-18T13:58:11;14.10;;;11.20;;
11797;SDS011;5956;51.428;6.682;2022-12-18T14:00:40;13.83;;;11.40;;
11797;SDS011;5956;51.428;6.682;2022-12-18T14:03:15;15.80;;;12.67;;
11797;SDS011;5956;51.428;6.682;2022-12-18T14:05:43;18.17;;;11.13;;
11797;SDS011;5956;51.428;6.682;2022-12-18T14:08:13;15.10;;;12.53;;
11797;SDS011;5956;51.428;6.682;2022-12-18T14:10:40;15.13;;;12.30;;
11797;SDS011;5956;51.428;6.682;2022-12-18T14:13:08;16.40;;;11.67;;
11797;SDS011;5956;51.428;6.682;2022-12-18T14:15:35;17.43;;;11.40;;
11797;SDS011;5956;51.428;6.682;2022-12-18T14:18:18;16.67;;;12.53;;
11797;SDS011;5956;51.428;6.682;2022-12-18T14:20:45;14.90;;;11.40;;
11797;SDS011;5956;51.428;6.682;2022-12-18T14:23:26;14.57;;;11.83;;
11797;SDS011;5956;51.428;6.682;2022-12-18T14:25:53;15.17;;;11.90;;
11797;SDS011;5956;51.428;6.682;2022-12-18T14:28:19;20.03;;;14.63;;
11797;SDS011;5956;51.428;6.682;2022-12-18T14:30:47;18.37;;;13.57;;
11797;SDS011;5956;51.428;6.682;2022-12-18T14:33:14;17.73;;;12.20;;
11797;SDS011;5956;51.428;6.682;2022-12-18T14:35:42;15.53;;;11.63;;
11797;SDS011;5956;51.428;6.682;2022-12-18T14:38:10;17.93;;;11.73;;
11797;SDS011;5956;51.428;6.682;2022-12-18T14:40:38;17.33;;;13.03;;
11797;SDS011;5956;51.428;6.682;2022-12-18T14:43:04;17.00;;;12.70;;
11797;SDS011;5956;51.428;6.682;2022-12-18T14:45:33;17.33;;;13.63;;
11797;SDS011;5956;51.428;6.682;2022-12-18T14:48:05;13.57;;;11.60;;
11797;SDS011;5956;51.428;6.682;2022-12-18T14:50:33;18.37;;;13.03;;
11797;SDS011;5956;51.428;6.682;2022-12-18T14:53:00;17.73;;;13.70;;
11797;SDS011;5956;51.428;6.682;2022-12-18T14:55:27;17.97;;;13.30;;
11797;SDS011;5956;51.428;6.682;2022-12-18T14:57:55;21.77;;;13.63;;
11797;SDS011;5956;51.428;6.682;2022-12-18T15:00:23;19.13;;;13.57;;
11797;SDS011;5956;51.428;6.682;2022-12-18T15:02:51;17.80;;;14.03;;
11797;SDS011;5956;51.428;6.682;2022-12-18T15:05:20;17.87;;;13.77;;
11797;SDS011;5956;51.428;6.682;2022-12-18T15:07:49;20.87;;;14.37;;
11797;SDS011;5956;51.428;6.682;2022-12-18T15:10:17;20.33;;;14.50;;
11797;SDS011;5956;51.428;6.682;2022-12-18T15:12:44;19.10;;;14.60;;
11797;SDS011;5956;51.428;6.682;2022-12-18T15:17:58;20.80;;;14.17;;
11797;SDS011;5956;51.428;6.682;2022-12-18T15:20:28;19.73;;;16.60;;
11797;SDS011;5956;51.428;6.682;2022-12-18T15:22:56;20.90;;;14.20;;
11797;SDS011;5956;51.428;6.682;2022-12-18T15:25:25;20.50;;;15.33;;